^^
Station Historical Data
Daily Summary for February 20, 2017 Units:  English    Metric   Both
« Previous Day
Next Day »
Daily Weekly Monthly Yearly Custom
  High: Low: Average:
Temperature: 55.2 °F 35.6 °F 45.5 °F
Dew Point: 34.6 °F 15.3 °F 26.9 °F
Humidity: 81 % 28 % 51 %
Wind Speed: 12.4 mph 0.0 mph 2.8 mph
Wind Gust: 19.6 mph - -
Wind:- - SSW
Pressure: 30.37 in 30.03 in -
Precipitation: 0.00 in    
Historical Graphs
 
 
Tabular Data for February 20, 2017
Time Temperature Dew Point Pressure Wind Wind Speed Wind Gust Humidity Rainfall Rate (Hourly) solar Conditions
00:04 48.3 °F 31.9 °F 30.03 in NNW 1.0 mph 3.5 mph 53 % 0.00 in 0.0 W/m2 CLR
00:09 48.0 °F 31.7 °F 30.03 in NNW 0.6 mph 3.5 mph 53 % 0.00 in 0.0 W/m2 CLR
00:14 47.8 °F 31.9 °F 30.03 in NNW 1.4 mph 3.5 mph 54 % 0.00 in 0.0 W/m2 CLR
00:19 47.4 °F 31.6 °F 30.03 in NW 1.4 mph 3.5 mph 54 % 0.00 in 0.0 W/m2 CLR
00:24 47.2 °F 31.4 °F 30.04 in NNW 1.2 mph 3.5 mph 54 % 0.00 in 0.0 W/m2 CLR
00:29 46.6 °F 31.3 °F 30.04 in Calm     55 % 0.00 in 0.0 W/m2 CLR
00:34 46.2 °F 31.8 °F 30.04 in NNW 0.6 mph 3.5 mph 57 % 0.00 in 0.0 W/m2 CLR
00:39 46.0 °F 31.6 °F 30.04 in Calm     57 % 0.00 in 0.0 W/m2 CLR
00:44 46.4 °F 31.5 °F 30.04 in Calm   3.5 mph 56 % 0.00 in 0.0 W/m2 CLR
00:49 46.6 °F 31.7 °F 30.04 in Calm   2.3 mph 56 % 0.00 in 0.0 W/m2 CLR
00:54 46.9 °F 32.0 °F 30.05 in Calm     56 % 0.00 in 0.0 W/m2 CLR
00:59 47.3 °F 32.4 °F 30.05 in NNW 3.9 mph 8.1 mph 56 % 0.00 in 0.0 W/m2 CLR
01:04 47.7 °F 33.2 °F 30.05 in NW 2.4 mph 3.5 mph 57 % 0.00 in 0.0 W/m2 CLR
01:09 48.1 °F 33.1 °F 30.05 in NW 3.2 mph 4.6 mph 56 % 0.00 in 0.0 W/m2 CLR
01:14 48.2 °F 33.2 °F 30.05 in NW 4.0 mph 5.8 mph 56 % 0.00 in 0.0 W/m2 CLR
01:19 48.2 °F 33.7 °F 30.05 in NNW 2.4 mph 5.8 mph 57 % 0.00 in 0.0 W/m2 CLR
01:24 48.1 °F 33.6 °F 30.06 in NW 3.8 mph 4.6 mph 57 % 0.00 in 0.0 W/m2 CLR
01:29 47.8 °F 33.7 °F 30.06 in NW 0.7 mph 3.5 mph 58 % 0.00 in 0.0 W/m2 CLR
01:34 47.7 °F 34.1 °F 30.06 in NW 1.1 mph 3.5 mph 59 % 0.00 in 0.0 W/m2 CLR
01:39 47.5 °F 33.9 °F 30.06 in Calm   1.2 mph 59 % 0.00 in 0.0 W/m2 CLR
01:44 47.3 °F 34.1 °F 30.06 in Calm     60 % 0.00 in 0.0 W/m2 CLR
01:49 47.3 °F 34.1 °F 30.06 in NW 0.5 mph 2.3 mph 60 % 0.00 in 0.0 W/m2 CLR
01:54 47.3 °F 34.1 °F 30.06 in Calm   2.3 mph 60 % 0.00 in 0.0 W/m2 CLR
01:59 47.2 °F 34.4 °F 30.06 in NW 0.2 mph 2.3 mph 61 % 0.00 in 0.0 W/m2 CLR
02:04 47.2 °F 34.4 °F 30.07 in NNW 3.3 mph 5.0 mph 61 % 0.00 in 0.0 W/m2 CLR
02:09 47.2 °F 34.4 °F 30.06 in NNW 0.8 mph 3.5 mph 61 % 0.00 in 0.0 W/m2 CLR
02:14 46.9 °F 34.6 °F 30.06 in Calm   1.2 mph 62 % 0.00 in 0.0 W/m2 CLR
02:19 46.2 °F 34.3 °F 30.07 in Calm   1.2 mph 63 % 0.00 in 0.0 W/m2 CLR
02:24 45.4 °F 33.9 °F 30.07 in Calm   1.2 mph 64 % 0.00 in 0.0 W/m2 CLR
02:29 44.5 °F 33.5 °F 30.07 in Calm     65 % 0.00 in 0.0 W/m2 CLR
02:34 43.7 °F 33.5 °F 30.07 in Calm     67 % 0.00 in 0.0 W/m2 CLR
02:40 43.3 °F 33.4 °F 30.07 in Calm     68 % 0.00 in 0.0 W/m2 CLR
02:45 43.0 °F 33.5 °F 30.07 in Calm     69 % 0.00 in 0.0 W/m2 CLR
02:50 42.8 °F 33.3 °F 30.07 in Calm     69 % 0.00 in 0.0 W/m2 CLR
02:55 42.8 °F 33.7 °F 30.08 in Calm     70 % 0.00 in 0.0 W/m2 CLR
03:00 43.2 °F 33.7 °F 30.08 in Calm     69 % 0.00 in 0.0 W/m2 CLR
03:05 43.2 °F 33.7 °F 30.08 in Calm     69 % 0.00 in 0.0 W/m2 CLR
03:10 43.2 °F 34.1 °F 30.08 in Calm   1.2 mph 70 % 0.00 in 0.0 W/m2 CLR
03:15 44.1 °F 34.6 °F 30.08 in Calm     69 % 0.00 in 0.0 W/m2 CLR
03:20 43.7 °F 33.8 °F 30.08 in Calm     68 % 0.00 in 0.0 W/m2 CLR
03:25 42.8 °F 33.3 °F 30.08 in Calm     69 % 0.00 in 0.0 W/m2 CLR
03:30 42.8 °F 33.7 °F 30.08 in Calm     70 % 0.00 in 0.0 W/m2 CLR
03:35 42.6 °F 33.5 °F 30.08 in Calm     70 % 0.00 in 0.0 W/m2 CLR
03:40 42.0 °F 33.3 °F 30.09 in Calm     71 % 0.00 in 0.0 W/m2 CLR
03:45 42.0 °F 33.6 °F 30.09 in Calm     72 % 0.00 in 0.0 W/m2 CLR
03:50 42.0 °F 33.6 °F 30.09 in Calm     72 % 0.00 in 0.0 W/m2 CLR
03:55 41.7 °F 33.3 °F 30.09 in Calm     72 % 0.00 in 0.0 W/m2 CLR
04:00 41.4 °F 33.0 °F 30.09 in Calm     72 % 0.00 in 0.0 W/m2 CLR
04:05 41.0 °F 33.0 °F 30.10 in Calm     73 % 0.00 in 0.0 W/m2 CLR
04:10 41.0 °F 33.0 °F 30.10 in Calm     73 % 0.00 in 0.0 W/m2 CLR
04:15 40.5 °F 32.5 °F 30.10 in Calm     73 % 0.00 in 0.0 W/m2 CLR
04:20 40.1 °F 32.4 °F 30.11 in Calm     74 % 0.00 in 0.0 W/m2 CLR
04:25 39.6 °F 32.3 °F 30.11 in Calm     75 % 0.00 in 0.0 W/m2 CLR
04:30 39.5 °F 32.6 °F 30.12 in Calm     76 % 0.00 in 0.0 W/m2 CLR
04:35 39.5 °F 32.6 °F 30.12 in Calm     76 % 0.00 in 0.0 W/m2 CLR
04:40 40.1 °F 33.4 °F 30.12 in Calm   3.0 mph 77 % 0.00 in 0.0 W/m2 CLR
04:45 39.8 °F 32.8 °F 30.12 in Calm     76 % 0.00 in 0.0 W/m2 CLR
04:50 39.0 °F 32.1 °F 30.12 in Calm     76 % 0.00 in 0.0 W/m2 CLR
04:55 38.9 °F 32.3 °F 30.13 in Calm     77 % 0.00 in 0.0 W/m2 CLR
05:00 39.0 °F 32.4 °F 30.13 in Calm     77 % 0.00 in 0.0 W/m2 CLR
05:05 38.5 °F 31.9 °F 30.13 in Calm     77 % 0.00 in 0.0 W/m2 CLR
05:10 38.2 °F 31.9 °F 30.13 in Calm     78 % 0.00 in 0.0 W/m2 CLR
05:15 37.9 °F 31.7 °F 30.13 in Calm     78 % 0.00 in 0.0 W/m2 CLR
05:20 38.0 °F 32.1 °F 30.14 in Calm     79 % 0.00 in 0.0 W/m2 CLR
05:25 38.1 °F 32.2 °F 30.14 in Calm     79 % 0.00 in 0.0 W/m2 CLR
05:30 37.9 °F 32.0 °F 30.14 in Calm     79 % 0.00 in 0.0 W/m2 CLR
05:35 37.6 °F 31.7 °F 30.14 in Calm     79 % 0.00 in 0.0 W/m2 CLR
05:40 37.5 °F 31.6 °F 30.15 in Calm     79 % 0.00 in 0.0 W/m2 CLR
05:45 37.2 °F 31.6 °F 30.15 in Calm     80 % 0.00 in 0.0 W/m2 CLR
05:50 37.0 °F 31.4 °F 30.15 in Calm     80 % 0.00 in 0.0 W/m2 CLR
05:55 37.3 °F 32.0 °F 30.15 in Calm     81 % 0.00 in 0.0 W/m2 CLR
06:00 37.5 °F 31.9 °F 30.15 in Calm     80 % 0.00 in 0.0 W/m2 CLR
06:05 37.2 °F 31.3 °F 30.15 in Calm     79 % 0.00 in 0.0 W/m2 CLR
06:10 37.4 °F 31.8 °F 30.16 in Calm     80 % 0.00 in 0.0 W/m2 CLR
06:15 37.1 °F 31.5 °F 30.16 in Calm     80 % 0.00 in 0.0 W/m2 CLR
06:20 36.9 °F 31.3 °F 30.16 in Calm     80 % 0.00 in 0.0 W/m2 CLR
06:25 36.4 °F 30.8 °F 30.16 in Calm     80 % 0.00 in 0.0 W/m2 CLR
06:30 36.5 °F 31.2 °F 30.17 in Calm     81 % 0.00 in 0.0 W/m2 CLR
06:35 36.8 °F 31.5 °F 30.17 in Calm     81 % 0.00 in 0.0 W/m2 CLR
06:40 36.9 °F 31.3 °F 30.17 in Calm     80 % 0.00 in 0.0 W/m2 CLR
06:45 37.0 °F 31.4 °F 30.18 in Calm     80 % 0.00 in 0.0 W/m2 CLR
06:50 37.2 °F 31.6 °F 30.18 in Calm     80 % 0.00 in 5.0 W/m2 CLR
06:55 37.2 °F 31.3 °F 30.18 in Calm     79 % 0.00 in 7.0 W/m2 CLR
07:00 37.3 °F 31.4 °F 30.19 in Calm     79 % 0.00 in 9.0 W/m2 CLR
07:05 37.0 °F 31.1 °F 30.19 in Calm     79 % 0.00 in 11.0 W/m2 CLR
07:10 37.0 °F 31.4 °F 30.19 in Calm     80 % 0.00 in 12.0 W/m2 CLR
07:15 37.5 °F 31.9 °F 30.20 in Calm     80 % 0.00 in 14.0 W/m2 CLR
07:20 38.3 °F 32.4 °F 30.20 in Calm     79 % 0.00 in 16.0 W/m2 CLR
07:25 38.1 °F 31.8 °F 30.20 in Calm     78 % 0.00 in 18.0 W/m2 CLR
07:30 38.8 °F 32.5 °F 30.20 in Calm     78 % 0.00 in 19.0 W/m2 CLR
07:35 39.9 °F 32.9 °F 30.21 in Calm     76 % 0.00 in 28.0 W/m2 SCT
07:40 40.3 °F 33.0 °F 30.21 in Calm     75 % 0.00 in 21.0 W/m2 BKN
07:45 40.7 °F 33.1 °F 30.21 in Calm     74 % 0.00 in 65.0 W/m2 FEW
07:50 41.4 °F 33.4 °F 30.22 in Calm     73 % 0.00 in 77.0 W/m2 CLR
07:55 42.0 °F 33.6 °F 30.22 in Calm     72 % 0.00 in 62.0 W/m2 BKN
08:00 42.6 °F 33.5 °F 30.23 in Calm     70 % 0.00 in 102.0 W/m2 CLR
08:05 43.1 °F 33.3 °F 30.23 in NW 0.5 mph 3.5 mph 68 % 0.00 in 81.0 W/m2 SCT
08:10 43.5 °F 33.3 °F 30.23 in NNW 0.2 mph 1.2 mph 67 % 0.00 in 86.0 W/m2 SCT
08:15 43.8 °F 33.6 °F 30.23 in NNW 0.9 mph 2.3 mph 67 % 0.00 in 113.0 W/m2 FEW
08:20 44.0 °F 33.4 °F 30.23 in NW 3.5 mph 3.5 mph 66 % 0.00 in 200.0 W/m2 CLR
08:25 44.4 °F 33.7 °F 30.23 in NW 2.0 mph 5.0 mph 66 % 0.00 in 250.0 W/m2 CLR
08:30 44.9 °F 33.8 °F 30.24 in NW 3.8 mph 5.8 mph 65 % 0.00 in 267.0 W/m2 CLR
08:35 45.1 °F 33.2 °F 30.24 in NW 6.3 mph 8.1 mph 63 % 0.00 in 288.0 W/m2 CLR
08:40 45.3 °F 33.8 °F 30.24 in NW 4.0 mph 8.1 mph 64 % 0.00 in 294.0 W/m2 CLR
08:46 45.6 °F 34.1 °F 30.23 in NNW 3.3 mph 9.2 mph 64 % 0.00 in 320.0 W/m2 CLR
08:51 45.7 °F 33.8 °F 30.24 in NW 6.0 mph 6.0 mph 63 % 0.00 in 283.0 W/m2 OVC
08:56 46.1 °F 33.8 °F 30.24 in NW 4.9 mph 8.1 mph 62 % 0.00 in 204.0 W/m2 FEW
09:01 46.0 °F 33.7 °F 30.24 in NNW 4.7 mph 8.1 mph 62 % 0.00 in 350.0 W/m2 CLR
09:06 45.8 °F 33.1 °F 30.24 in WNW 6.3 mph 9.2 mph 61 % 0.00 in 206.0 W/m2 CLR
09:11 46.0 °F 33.7 °F 30.24 in North 4.4 mph 5.0 mph 62 % 0.00 in 350.0 W/m2 CLR
09:16 46.0 °F 33.3 °F 30.24 in NNE 7.2 mph 9.2 mph 61 % 0.00 in 253.0 W/m2 CLR
09:21 46.2 °F 33.5 °F 30.24 in NNE 8.2 mph 11.5 mph 61 % 0.00 in 346.0 W/m2 CLR
09:26 46.0 °F 32.9 °F 30.24 in NNE 8.1 mph 10.4 mph 60 % 0.00 in 353.0 W/m2 CLR
09:32 45.9 °F 33.2 °F 30.25 in North 4.1 mph 12.7 mph 61 % 0.00 in 392.0 W/m2 CLR
09:37 46.1 °F 33.0 °F 30.25 in North 7.2 mph 13.0 mph 60 % 0.00 in 457.0 W/m2 CLR
09:42 46.7 °F 34.0 °F 30.25 in North 4.9 mph 11.5 mph 61 % 0.00 in 497.0 W/m2 CLR
09:47 47.0 °F 33.0 °F 30.26 in North 8.3 mph 11.5 mph 58 % 0.00 in 510.0 W/m2 CLR
09:52 47.4 °F 33.8 °F 30.26 in North 7.2 mph 11.5 mph 59 % 0.00 in 519.0 W/m2 CLR
09:57 47.3 °F 32.8 °F 30.26 in NNW 12.4 mph 19.6 mph 57 % 0.00 in 531.0 W/m2 CLR
10:02 47.7 °F 33.6 °F 30.25 in North 5.2 mph 8.1 mph 58 % 0.00 in 501.0 W/m2 CLR
10:07 47.7 °F 33.2 °F 30.25 in NNE 7.9 mph 9.0 mph 57 % 0.00 in 517.0 W/m2 CLR
10:12 47.8 °F 33.3 °F 30.25 in NNW 10.1 mph 11.5 mph 57 % 0.00 in 555.0 W/m2 CLR
10:17 47.9 °F 32.9 °F 30.25 in NW 5.5 mph 11.5 mph 56 % 0.00 in 471.0 W/m2 CLR
10:22 48.4 °F 33.9 °F 30.25 in NNE 8.1 mph 12.0 mph 57 % 0.00 in 584.0 W/m2 CLR
10:27 48.4 °F 33.4 °F 30.26 in West 8.2 mph 11.5 mph 56 % 0.00 in 438.0 W/m2 CLR
10:32 48.1 °F 32.7 °F 30.26 in NNW 3.7 mph 11.5 mph 55 % 0.00 in 573.0 W/m2 CLR
10:37 48.9 °F 33.9 °F 30.27 in North 5.8 mph 10.4 mph 56 % 0.00 in 573.0 W/m2 CLR
10:42 48.7 °F 33.2 °F 30.26 in NE 8.3 mph 11.5 mph 55 % 0.00 in 538.0 W/m2 CLR
10:47 48.7 °F 33.2 °F 30.26 in North 3.9 mph 9.2 mph 55 % 0.00 in 366.0 W/m2 FEW
10:52 48.6 °F 33.1 °F 30.26 in NNE 8.7 mph 11.5 mph 55 % 0.00 in 422.0 W/m2 FEW
10:57 49.0 °F 33.1 °F 30.26 in NW 4.2 mph 5.8 mph 54 % 0.00 in 584.0 W/m2 CLR
11:02 48.8 °F 32.9 °F 30.25 in North 0.2 mph 2.3 mph 54 % 0.00 in 605.0 W/m2 CLR
11:07 48.9 °F 33.0 °F 30.26 in NNE 6.8 mph 12.7 mph 54 % 0.00 in 652.0 W/m2 CLR
11:12 49.3 °F 33.3 °F 30.25 in NNW 4.7 mph 9.2 mph 54 % 0.00 in 645.0 W/m2 CLR
11:17 48.9 °F 33.0 °F 30.25 in North 4.0 mph 10.4 mph 54 % 0.00 in 670.0 W/m2 CLR
11:22 49.4 °F 33.0 °F 30.25 in North 2.5 mph 4.0 mph 53 % 0.00 in 663.0 W/m2 CLR
11:27 49.8 °F 32.9 °F 30.25 in North 3.0 mph 5.8 mph 52 % 0.00 in 671.0 W/m2 CLR
11:32 49.8 °F 32.9 °F 30.26 in NNW 6.5 mph 10.0 mph 52 % 0.00 in 680.0 W/m2 CLR
11:37 50.1 °F 32.7 °F 30.25 in North 5.1 mph 9.0 mph 51 % 0.00 in 686.0 W/m2 CLR
11:42 50.6 °F 32.6 °F 30.26 in NNW 7.3 mph 12.7 mph 50 % 0.00 in 686.0 W/m2 CLR
11:47 50.7 °F 32.7 °F 30.25 in North 4.1 mph 5.8 mph 50 % 0.00 in 689.0 W/m2 CLR
11:52 51.1 °F 32.6 °F 30.25 in NNE 4.0 mph 8.1 mph 49 % 0.00 in 691.0 W/m2 CLR
11:57 51.4 °F 31.8 °F 30.25 in NNW 9.4 mph 15.0 mph 47 % 0.00 in 698.0 W/m2 CLR
12:02 51.4 °F 32.3 °F 30.25 in NW 9.1 mph 12.7 mph 48 % 0.00 in 693.0 W/m2 CLR
12:07 51.9 °F 31.7 °F 30.25 in NNW 8.2 mph 11.5 mph 46 % 0.00 in 696.0 W/m2 CLR
12:12 52.0 °F 31.8 °F 30.25 in NNW 4.2 mph 9.0 mph 46 % 0.00 in 694.0 W/m2 CLR
12:17 52.1 °F 31.4 °F 30.25 in NNW 7.5 mph 11.5 mph 45 % 0.00 in 694.0 W/m2 CLR
12:22 52.1 °F 30.3 °F 30.26 in NNW 3.8 mph 9.2 mph 43 % 0.00 in 693.0 W/m2 CLR
12:27 52.6 °F 30.7 °F 30.25 in West 12.0 mph 17.0 mph 43 % 0.00 in 689.0 W/m2 CLR
12:32 52.8 °F 30.9 °F 30.25 in NNW 7.9 mph 11.5 mph 43 % 0.00 in 696.0 W/m2 CLR
12:37 53.0 °F 31.1 °F 30.25 in West 10.3 mph 12.7 mph 43 % 0.00 in 691.0 W/m2 CLR
12:42 52.5 °F 29.5 °F 30.25 in NNW 3.8 mph 4.6 mph 41 % 0.00 in 691.0 W/m2 CLR
12:47 53.0 °F 29.3 °F 30.24 in WNW 6.0 mph 10.4 mph 40 % 0.00 in 686.0 W/m2 CLR
12:52 53.9 °F 29.5 °F 30.24 in NNW 9.0 mph 12.7 mph 39 % 0.00 in 682.0 W/m2 CLR
12:57 53.4 °F 29.7 °F 30.24 in NW 4.7 mph 6.9 mph 40 % 0.00 in 680.0 W/m2 CLR
13:02 53.7 °F 30.5 °F 30.24 in NNW 5.0 mph 10.4 mph 41 % 0.00 in 671.0 W/m2 CLR
13:07 53.9 °F 30.7 °F 30.23 in NNW 4.9 mph 8.0 mph 41 % 0.00 in 670.0 W/m2 CLR
13:12 54.0 °F 30.2 °F 30.23 in North 3.0 mph 8.1 mph 40 % 0.00 in 663.0 W/m2 CLR
13:17 53.8 °F 28.8 °F 30.23 in North 6.9 mph 9.2 mph 38 % 0.00 in 657.0 W/m2 CLR
13:23 54.4 °F 27.3 °F 30.23 in NW 9.7 mph 15.0 mph 35 % 0.00 in 654.0 W/m2 CLR
13:28 54.3 °F 27.2 °F 30.22 in NW 6.7 mph 11.5 mph 35 % 0.00 in 647.0 W/m2 CLR
13:33 54.4 °F 28.0 °F 30.23 in WNW 8.8 mph 11.5 mph 36 % 0.00 in 642.0 W/m2 CLR
13:38 54.4 °F 28.6 °F 30.22 in NNW 8.4 mph 16.1 mph 37 % 0.00 in 636.0 W/m2 CLR
13:43 54.3 °F 28.6 °F 30.22 in NNW 8.8 mph 15.0 mph 37 % 0.00 in 626.0 W/m2 CLR
13:48 54.6 °F 27.5 °F 30.22 in NW 10.2 mph 11.5 mph 35 % 0.00 in 617.0 W/m2 CLR
13:53 54.2 °F 27.1 °F 30.22 in North 5.6 mph 5.6 mph 35 % 0.00 in 608.0 W/m2 CLR
13:58 54.7 °F 26.1 °F 30.22 in North 8.3 mph 12.7 mph 33 % 0.00 in 601.0 W/m2 CLR
14:03 54.9 °F 26.3 °F 30.22 in North 6.4 mph 11.5 mph 33 % 0.00 in 592.0 W/m2 CLR
14:08 55.2 °F 25.8 °F 30.21 in North 8.9 mph 11.5 mph 32 % 0.00 in 580.0 W/m2 CLR
14:09 55.0 °F 25.6 °F 30.22 in NW 7.2 mph 13.8 mph 32 % 0.00 in 582.0 W/m2 CLR
14:14 54.7 °F 24.6 °F 30.22 in North 5.8 mph 13.8 mph 31 % 0.00 in 571.0 W/m2 CLR
14:19 54.9 °F 24.8 °F 30.22 in NW 6.1 mph 13.8 mph 31 % 0.00 in 561.0 W/m2 CLR
14:24 54.2 °F 23.4 °F 30.22 in North 9.6 mph 13.8 mph 30 % 0.00 in 548.0 W/m2 CLR
14:29 53.8 °F 23.1 °F 30.22 in NNE 6.4 mph 11.5 mph 30 % 0.00 in 538.0 W/m2 CLR
14:34 54.1 °F 24.1 °F 30.23 in NNW 8.4 mph 14.0 mph 31 % 0.00 in 526.0 W/m2 CLR
14:39 54.1 °F 24.1 °F 30.23 in NNW 7.8 mph 13.0 mph 31 % 0.00 in 512.0 W/m2 CLR
14:44 54.8 °F 23.9 °F 30.23 in NNW 9.5 mph 15.0 mph 30 % 0.00 in 501.0 W/m2 CLR
14:49 54.2 °F 23.4 °F 30.23 in NNE 6.6 mph 11.5 mph 30 % 0.00 in 485.0 W/m2 CLR
14:54 54.8 °F 24.7 °F 30.23 in North 9.6 mph 16.1 mph 31 % 0.00 in 475.0 W/m2 CLR
14:59 54.7 °F 24.6 °F 30.23 in NW 4.1 mph 11.5 mph 31 % 0.00 in 462.0 W/m2 CLR
15:04 54.9 °F 24.0 °F 30.23 in NW 3.3 mph 9.2 mph 30 % 0.00 in 446.0 W/m2 CLR
15:09 54.8 °F 23.9 °F 30.23 in NNE 5.9 mph 11.5 mph 30 % 0.00 in 432.0 W/m2 CLR
15:14 54.2 °F 23.4 °F 30.24 in NNW 7.7 mph 12.7 mph 30 % 0.00 in 420.0 W/m2 CLR
15:19 54.7 °F 23.8 °F 30.24 in NW 6.6 mph 9.2 mph 30 % 0.00 in 406.0 W/m2 CLR
15:24 54.8 °F 23.9 °F 30.24 in NNE 3.4 mph 5.0 mph 30 % 0.00 in 390.0 W/m2 CLR
15:29 54.6 °F 23.7 °F 30.24 in NW 7.1 mph 11.5 mph 30 % 0.00 in 376.0 W/m2 CLR
15:34 54.7 °F 23.8 °F 30.24 in NNW 6.6 mph 13.8 mph 30 % 0.00 in 359.0 W/m2 CLR
15:39 54.7 °F 23.8 °F 30.23 in North 10.1 mph 13.8 mph 30 % 0.00 in 345.0 W/m2 CLR
15:44 54.4 °F 23.6 °F 30.24 in North 5.7 mph 12.7 mph 30 % 0.00 in 329.0 W/m2 CLR
15:49 54.1 °F 23.3 °F 30.24 in NNW 5.1 mph 13.0 mph 30 % 0.00 in 320.0 W/m2 CLR
15:54 54.3 °F 22.7 °F 30.23 in NNW 2.0 mph 3.5 mph 29 % 0.00 in 190.0 W/m2 CLR
15:59 54.0 °F 22.4 °F 30.24 in NNW 6.0 mph 11.0 mph 29 % 0.00 in 281.0 W/m2 CLR
16:04 53.8 °F 22.2 °F 30.24 in NW 4.9 mph 9.2 mph 29 % 0.00 in 260.0 W/m2 CLR
16:09 54.2 °F 21.8 °F 30.24 in NW 6.4 mph 10.4 mph 28 % 0.00 in 178.0 W/m2 CLR
16:14 54.2 °F 22.6 °F 30.23 in North 4.5 mph 8.1 mph 29 % 0.00 in 229.0 W/m2 CLR
16:19 53.7 °F 22.2 °F 30.24 in NNE 4.3 mph 8.0 mph 29 % 0.00 in 202.0 W/m2 CLR
16:24 53.6 °F 22.1 °F 30.24 in NNW 3.6 mph 5.8 mph 29 % 0.00 in 181.0 W/m2 CLR
16:29 53.5 °F 21.2 °F 30.24 in NNE 6.6 mph 11.5 mph 28 % 0.00 in 146.0 W/m2 CLR
16:34 53.0 °F 20.7 °F 30.24 in NNW 6.8 mph 11.5 mph 28 % 0.00 in 137.0 W/m2 CLR
16:39 52.8 °F 20.5 °F 30.24 in North 7.9 mph 11.5 mph 28 % 0.00 in 120.0 W/m2 CLR
16:44 52.5 °F 20.3 °F 30.24 in NNE 5.9 mph 9.0 mph 28 % 0.00 in 93.0 W/m2 CLR
16:49 52.3 °F 20.9 °F 30.24 in North 3.3 mph 4.6 mph 29 % 0.00 in 70.0 W/m2 FEW
16:54 52.1 °F 20.8 °F 30.24 in NNE 7.5 mph 9.2 mph 29 % 0.00 in 62.0 W/m2 FEW
16:59 52.1 °F 20.8 °F 30.24 in NNW 7.4 mph 13.0 mph 29 % 0.00 in 42.0 W/m2 SCT
17:04 51.8 °F 20.5 °F 30.24 in North 2.7 mph 4.6 mph 29 % 0.00 in 25.0 W/m2 BKN
17:09 51.3 °F 20.1 °F 30.25 in NNW 7.2 mph 12.7 mph 29 % 0.00 in 21.0 W/m2 BKN
17:14 51.2 °F 20.8 °F 30.25 in NNW 2.7 mph 4.6 mph 30 % 0.00 in 18.0 W/m2 BKN
17:19 51.0 °F 21.4 °F 30.25 in NNE 4.2 mph 9.2 mph 31 % 0.00 in 16.0 W/m2 BKN
17:24 50.8 °F 21.2 °F 30.25 in NNW 3.6 mph 9.2 mph 31 % 0.00 in 14.0 W/m2 BKN
17:29 50.4 °F 20.9 °F 30.25 in NW 6.4 mph 10.4 mph 31 % 0.00 in 11.0 W/m2 SCT
17:34 50.0 °F 20.5 °F 30.26 in NNW 3.4 mph 4.0 mph 31 % 0.00 in 9.0 W/m2 FEW
17:39 49.6 °F 20.9 °F 30.26 in NW 2.8 mph 3.5 mph 32 % 0.00 in 5.0 W/m2 CLR
17:44 49.2 °F 20.6 °F 30.27 in NNW 0.3 mph 4.6 mph 32 % 0.00 in 0.0 W/m2 CLR
17:49 48.9 °F 20.3 °F 30.27 in Calm     32 % 0.00 in 0.0 W/m2 CLR
17:54 48.7 °F 19.4 °F 30.27 in NNW 1.8 mph 3.5 mph 31 % 0.00 in 0.0 W/m2 CLR
17:59 48.5 °F 20.7 °F 30.27 in North 0.6 mph 3.5 mph 33 % 0.00 in 0.0 W/m2 CLR
18:05 47.8 °F 20.1 °F 30.27 in North 1.6 mph 3.5 mph 33 % 0.00 in 0.0 W/m2 CLR
18:10 47.3 °F 19.6 °F 30.27 in North 0.8 mph 3.5 mph 33 % 0.00 in 0.0 W/m2 CLR
18:15 46.7 °F 19.8 °F 30.28 in NNE 1.2 mph 3.5 mph 34 % 0.00 in 0.0 W/m2 CLR
18:20 46.4 °F 19.5 °F 30.29 in NNE 0.3 mph 3.5 mph 34 % 0.00 in 0.0 W/m2 CLR
18:25 46.2 °F 19.3 °F 30.29 in Calm     34 % 0.00 in 0.0 W/m2 CLR
18:30 45.8 °F 19.7 °F 30.29 in Calm     35 % 0.00 in 0.0 W/m2 CLR
18:35 45.3 °F 19.2 °F 30.29 in Calm     35 % 0.00 in 0.0 W/m2 CLR
18:40 45.4 °F 19.3 °F 30.29 in NNE 0.1 mph   35 % 0.00 in 0.0 W/m2 CLR
18:45 44.8 °F 19.4 °F 30.29 in NNE 2.1 mph 3.5 mph 36 % 0.00 in 0.0 W/m2 CLR
18:50 44.7 °F 18.7 °F 30.29 in NNE 3.0 mph 5.0 mph 35 % 0.00 in 0.0 W/m2 CLR
18:55 44.5 °F 19.1 °F 30.30 in NNE 2.0 mph 4.0 mph 36 % 0.00 in 0.0 W/m2 CLR
19:00 44.4 °F 18.4 °F 30.30 in North 5.9 mph 8.1 mph 35 % 0.00 in 0.0 W/m2 CLR
19:05 44.6 °F 18.6 °F 30.30 in NNE 1.1 mph 3.5 mph 35 % 0.00 in 0.0 W/m2 CLR
19:10 44.3 °F 18.3 °F 30.30 in North 4.3 mph 9.2 mph 35 % 0.00 in 0.0 W/m2 CLR
19:15 44.3 °F 17.7 °F 30.31 in North 2.6 mph 3.5 mph 34 % 0.00 in 0.0 W/m2 CLR
19:20 44.4 °F 17.1 °F 30.30 in North 4.3 mph 8.1 mph 33 % 0.00 in 0.0 W/m2 CLR
19:25 44.4 °F 17.1 °F 30.31 in NNE 1.9 mph 3.5 mph 33 % 0.00 in 0.0 W/m2 CLR
19:30 44.3 °F 15.5 °F 30.31 in North 1.0 mph 3.5 mph 31 % 0.00 in 0.0 W/m2 CLR
19:36 43.8 °F 15.8 °F 30.30 in North 1.3 mph 3.5 mph 32 % 0.00 in 0.0 W/m2 CLR
19:41 43.3 °F 15.4 °F 30.31 in Calm     32 % 0.00 in 0.0 W/m2 CLR
19:46 43.2 °F 15.3 °F 30.31 in Calm   2.3 mph 32 % 0.00 in 0.0 W/m2 CLR
19:51 43.2 °F 15.3 °F 30.31 in Calm     32 % 0.00 in 0.0 W/m2 CLR
19:56 43.3 °F 15.4 °F 30.32 in Calm     32 % 0.00 in 0.0 W/m2 CLR
20:01 42.7 °F 15.6 °F 30.32 in Calm     33 % 0.00 in 0.0 W/m2 CLR
20:06 42.2 °F 15.8 °F 30.32 in Calm     34 % 0.00 in 0.0 W/m2 CLR
20:11 41.7 °F 16.0 °F 30.32 in North 0.5 mph   35 % 0.00 in 0.0 W/m2 CLR
20:16 40.7 °F 17.0 °F 30.32 in Calm   2.3 mph 38 % 0.00 in 0.0 W/m2 CLR
20:21 41.3 °F 16.9 °F 30.32 in Calm     37 % 0.00 in 0.0 W/m2 CLR
20:26 41.7 °F 16.7 °F 30.33 in Calm     36 % 0.00 in 0.0 W/m2 CLR
20:31 41.5 °F 17.1 °F 30.32 in North 2.5 mph 3.5 mph 37 % 0.00 in 0.0 W/m2 CLR
20:36 41.4 °F 16.4 °F 30.32 in North 3.0 mph 4.0 mph 36 % 0.00 in 0.0 W/m2 CLR
20:41 41.4 °F 16.4 °F 30.32 in NNE 3.6 mph 4.6 mph 36 % 0.00 in 0.0 W/m2 CLR
20:46 41.5 °F 16.5 °F 30.32 in NNE 3.4 mph 4.0 mph 36 % 0.00 in 0.0 W/m2 CLR
20:51 41.6 °F 16.6 °F 30.33 in NNE 1.2 mph 2.3 mph 36 % 0.00 in 0.0 W/m2 CLR
20:56 41.5 °F 16.5 °F 30.32 in North 0.9 mph 3.5 mph 36 % 0.00 in 0.0 W/m2 CLR
21:01 41.0 °F 16.7 °F 30.33 in North 0.4 mph 3.5 mph 37 % 0.00 in 0.0 W/m2 CLR
21:06 40.6 °F 16.9 °F 30.33 in North 0.4 mph 2.3 mph 38 % 0.00 in 0.0 W/m2 CLR
21:11 40.6 °F 16.9 °F 30.33 in North 0.5 mph 3.5 mph 38 % 0.00 in 0.0 W/m2 CLR
21:16 40.1 °F 16.5 °F 30.33 in North 0.2 mph 1.0 mph 38 % 0.00 in 0.0 W/m2 CLR
21:21 40.1 °F 16.5 °F 30.34 in Calm     38 % 0.00 in 0.0 W/m2 CLR
21:26 40.0 °F 17.0 °F 30.34 in North 0.1 mph 1.0 mph 39 % 0.00 in 0.0 W/m2 CLR
21:31 39.9 °F 16.9 °F 30.35 in North 0.6 mph 3.5 mph 39 % 0.00 in 0.0 W/m2 CLR
21:36 39.8 °F 16.8 °F 30.36 in NNE 2.5 mph 3.5 mph 39 % 0.00 in 0.0 W/m2 CLR
21:41 40.0 °F 16.4 °F 30.35 in NNE 2.9 mph 3.5 mph 38 % 0.00 in 0.0 W/m2 CLR
21:46 39.8 °F 16.2 °F 30.36 in NNE 2.8 mph 4.0 mph 38 % 0.00 in 0.0 W/m2 CLR
21:51 39.4 °F 16.5 °F 30.36 in Calm     39 % 0.00 in 0.0 W/m2 CLR
21:56 39.2 °F 16.3 °F 30.36 in NNE 1.7 mph 3.5 mph 39 % 0.00 in 0.0 W/m2 CLR
22:01 39.3 °F 16.4 °F 30.36 in NNE 1.7 mph 3.5 mph 39 % 0.00 in 0.0 W/m2 CLR
22:06 39.3 °F 16.4 °F 30.37 in Calm     39 % 0.00 in 0.0 W/m2 CLR
22:11 38.8 °F 16.5 °F 30.37 in NNE 0.2 mph 1.2 mph 40 % 0.00 in 0.0 W/m2 CLR
22:16 38.8 °F 15.9 °F 30.37 in NNE 0.8 mph 2.0 mph 39 % 0.00 in 0.0 W/m2 CLR
22:21 38.4 °F 16.1 °F 30.37 in NNE 1.9 mph 3.0 mph 40 % 0.00 in 0.0 W/m2 CLR
22:26 38.3 °F 16.1 °F 30.37 in NNE 1.6 mph 2.3 mph 40 % 0.00 in 0.0 W/m2 CLR
22:31 38.1 °F 16.4 °F 30.37 in NNE 1.2 mph 3.5 mph 41 % 0.00 in 0.0 W/m2 CLR
22:36 37.4 °F 16.9 °F 30.37 in Calm   2.3 mph 43 % 0.00 in 0.0 W/m2 CLR
22:41 37.4 °F 16.4 °F 30.37 in NNE 2.1 mph 3.5 mph 42 % 0.00 in 0.0 W/m2 CLR
22:46 37.7 °F 16.1 °F 30.37 in Calm   3.5 mph 41 % 0.00 in 0.0 W/m2 CLR
22:52 37.7 °F 16.6 °F 30.37 in NNE 1.4 mph 3.5 mph 42 % 0.00 in 0.0 W/m2 CLR
22:56 37.7 °F 16.1 °F 30.37 in Calm     41 % 0.00 in 0.0 W/m2 CLR
23:02 37.5 °F 16.5 °F 30.36 in NNE 2.0 mph 3.0 mph 42 % 0.00 in 0.0 W/m2 CLR
23:07 37.2 °F 16.2 °F 30.37 in NNE 1.1 mph 2.3 mph 42 % 0.00 in 0.0 W/m2 CLR
23:12 37.2 °F 16.7 °F 30.36 in NNE 1.0 mph 3.5 mph 43 % 0.00 in 0.0 W/m2 CLR
23:17 37.1 °F 16.1 °F 30.37 in Calm   2.3 mph 42 % 0.00 in 0.0 W/m2 CLR
23:22 37.0 °F 16.5 °F 30.37 in Calm     43 % 0.00 in 0.0 W/m2 CLR
23:27 36.9 °F 16.5 °F 30.37 in NNE 0.3 mph 2.3 mph 43 % 0.00 in 0.0 W/m2 CLR
23:32 36.7 °F 16.3 °F 30.37 in Calm     43 % 0.00 in 0.0 W/m2 CLR
23:37 36.1 °F 16.3 °F 30.37 in NNE 2.4 mph 3.5 mph 44 % 0.00 in 0.0 W/m2 CLR
23:42 36.4 °F 16.5 °F 30.37 in Calm   3.5 mph 44 % 0.00 in 0.0 W/m2 CLR
23:47 36.2 °F 16.4 °F 30.37 in Calm   2.3 mph 44 % 0.00 in 0.0 W/m2 CLR
23:52 35.9 °F 16.1 °F 30.37 in NNE 0.3 mph 2.3 mph 44 % 0.00 in 0.0 W/m2 CLR
23:57 35.6 °F 16.3 °F 30.37 in Calm     45 % 0.00 in 0.0 W/m2 CLR
Air Products Campus Weather
Compliments of Weather Underground - 3.5 mb